createdAt,value
2022-08-08T00:01:52.581Z,16.44
2022-08-08T00:04:28.047Z,16.43
2022-08-08T00:06:57.545Z,16.40
2022-08-08T00:09:34.413Z,16.35
2022-08-08T00:12:10.596Z,16.27
2022-08-08T00:15:03.245Z,16.24
2022-08-08T00:17:58.368Z,16.24
2022-08-08T00:20:37.027Z,16.23
2022-08-08T00:23:10.455Z,16.23
2022-08-08T00:25:46.408Z,16.23
2022-08-08T00:28:35.928Z,16.22
2022-08-08T00:32:20.243Z,16.20
2022-08-08T00:34:49.693Z,16.16
2022-08-08T00:37:47.692Z,16.14
2022-08-08T00:41:09.171Z,16.13
2022-08-08T00:43:56.332Z,16.12
2022-08-08T00:46:57.596Z,16.13
2022-08-08T00:49:58.593Z,16.16
2022-08-08T00:53:03.413Z,16.15
2022-08-08T00:56:04.471Z,16.16
2022-08-08T00:58:54.208Z,16.16
2022-08-08T01:01:36.444Z,16.14
2022-08-08T01:04:43.367Z,16.13
2022-08-08T01:07:23.800Z,16.11
2022-08-08T01:10:33.264Z,16.10
2022-08-08T01:13:43.366Z,16.09
2022-08-08T01:16:48.487Z,16.10
2022-08-08T01:20:02.711Z,16.07
2022-08-08T01:22:47.850Z,16.05
2022-08-08T01:25:48.253Z,16.02
2022-08-08T01:28:30.098Z,16.01
2022-08-08T01:32:05.160Z,16.01
2022-08-08T01:34:28.793Z,16.02
2022-08-08T01:37:21.632Z,15.98
2022-08-08T01:40:19.246Z,15.95
2022-08-08T01:43:29.124Z,15.89
2022-08-08T01:46:31.813Z,15.84
2022-08-08T01:49:45.723Z,15.81
2022-08-08T01:54:00.937Z,15.81
2022-08-08T01:56:28.198Z,15.82
2022-08-08T01:58:50.750Z,15.86
2022-08-08T02:02:02.936Z,15.90
2022-08-08T02:04:43.677Z,15.90
2022-08-08T02:07:42.090Z,15.86
2022-08-08T02:11:00.789Z,15.87
2022-08-08T02:13:55.506Z,15.83
2022-08-08T02:16:52.429Z,15.83
2022-08-08T02:20:07.650Z,15.84
2022-08-08T02:22:52.925Z,15.81
2022-08-08T02:25:32.783Z,15.75
2022-08-08T02:28:42.632Z,15.71
2022-08-08T02:31:58.340Z,15.68
2022-08-08T02:34:32.813Z,15.67
2022-08-08T02:37:53.469Z,15.68
2022-08-08T02:40:20.026Z,15.68
2022-08-08T02:43:00.622Z,15.65
2022-08-08T02:45:56.707Z,15.65
2022-08-08T02:48:52.696Z,15.68
2022-08-08T02:51:57.234Z,15.65
2022-08-08T02:54:38.072Z,15.61
2022-08-08T02:57:40.475Z,15.59
2022-08-08T03:00:31.982Z,15.58
2022-08-08T03:03:08.318Z,15.57
2022-08-08T03:05:55.627Z,15.52
2022-08-08T03:09:19.794Z,15.47
2022-08-08T03:12:02.118Z,15.38
2022-08-08T03:16:02.089Z,15.34
2022-08-08T03:18:04.950Z,15.28
2022-08-08T03:20:42.299Z,15.27
2022-08-08T03:23:14.498Z,15.22
2022-08-08T03:25:46.594Z,15.21
2022-08-08T03:28:19.152Z,15.19
2022-08-08T03:30:48.709Z,15.18
2022-08-08T03:34:00.288Z,15.16
2022-08-08T03:36:09.360Z,15.13
2022-08-08T03:38:57.328Z,15.10
2022-08-08T03:42:28.407Z,15.09
2022-08-08T03:44:25.571Z,15.11
2022-08-08T03:46:52.594Z,15.09
2022-08-08T03:49:58.647Z,15.09
2022-08-08T03:52:13.156Z,15.11
2022-08-08T03:55:01.966Z,15.11
2022-08-08T03:58:30.109Z,15.08
2022-08-08T04:00:26.029Z,15.02
2022-08-08T04:03:06.322Z,15.01
2022-08-08T04:05:47.134Z,15.00
2022-08-08T04:08:33.191Z,15.00
2022-08-08T04:11:03.154Z,14.98
2022-08-08T04:14:03.705Z,14.97
2022-08-08T04:16:38.371Z,14.95
2022-08-08T04:19:23.287Z,14.93
2022-08-08T04:21:52.037Z,14.92
2022-08-08T04:24:28.145Z,14.92
2022-08-08T04:26:58.722Z,14.88
2022-08-08T04:29:26.400Z,14.86
2022-08-08T04:31:59.822Z,14.84
2022-08-08T04:34:31.788Z,14.85
2022-08-08T04:36:59.260Z,14.83
2022-08-08T04:40:03.843Z,14.83
2022-08-08T04:42:15.950Z,14.82
2022-08-08T04:44:47.689Z,14.82
2022-08-08T04:47:15.171Z,14.83
2022-08-08T04:49:58.705Z,14.86
2022-08-08T04:52:33.874Z,14.89
2022-08-08T04:55:02.198Z,14.91
2022-08-08T04:57:29.133Z,14.93
2022-08-08T04:59:59.449Z,14.97
2022-08-08T05:02:28.483Z,15.02
2022-08-08T05:04:59.524Z,15.07
2022-08-08T05:07:37.983Z,15.12
2022-08-08T05:10:12.928Z,15.19
2022-08-08T05:12:42.896Z,15.22
2022-08-08T05:16:36.355Z,15.23
2022-08-08T05:18:13.861Z,15.26
2022-08-08T05:20:48.493Z,15.32
2022-08-08T05:23:17.546Z,15.35
2022-08-08T05:25:44.187Z,15.38
2022-08-08T05:28:14.964Z,15.40
2022-08-08T05:30:47.364Z,15.46
2022-08-08T05:33:14.909Z,15.48
2022-08-08T05:35:45.377Z,15.50
2022-08-08T05:38:30.589Z,15.52
2022-08-08T05:41:03.391Z,15.59
2022-08-08T05:43:39.581Z,15.64
2022-08-08T05:46:09.942Z,15.70
2022-08-08T05:48:37.945Z,15.74
2022-08-08T05:51:14.365Z,15.75
2022-08-08T05:54:25.037Z,15.80
2022-08-08T05:56:38.576Z,15.87
2022-08-08T05:59:16.968Z,15.96
2022-08-08T06:02:28.166Z,15.99
2022-08-08T06:05:00.773Z,16.03
2022-08-08T06:07:27.803Z,16.11
2022-08-08T06:09:59.713Z,16.19
2022-08-08T06:12:30.380Z,16.27
2022-08-08T06:15:03.698Z,16.33
2022-08-08T06:18:18.645Z,16.36
2022-08-08T06:20:21.723Z,16.42
2022-08-08T06:22:50.172Z,16.46
2022-08-08T06:25:18.162Z,16.53
2022-08-08T06:27:52.687Z,16.58
2022-08-08T06:30:28.330Z,16.69
2022-08-08T06:32:57.879Z,16.77
2022-08-08T06:36:07.154Z,16.81
2022-08-08T06:38:28.701Z,16.87
2022-08-08T06:41:07.626Z,16.94
2022-08-08T06:43:47.521Z,17.00
2022-08-08T06:46:24.235Z,17.01
2022-08-08T06:48:51.141Z,17.05
2022-08-08T06:51:20.646Z,17.09
2022-08-08T06:53:50.923Z,17.14
2022-08-08T06:56:24.278Z,17.20
2022-08-08T06:58:50.919Z,17.28
2022-08-08T07:02:16.476Z,17.32
2022-08-08T07:04:38.614Z,17.37
2022-08-08T07:07:18.792Z,17.39
2022-08-08T07:10:08.204Z,17.41
2022-08-08T07:12:48.007Z,17.45
2022-08-08T07:15:32.690Z,17.49
2022-08-08T07:18:36.725Z,17.56
2022-08-08T07:20:57.678Z,17.64
2022-08-08T07:24:00.954Z,17.68
2022-08-08T07:26:35.206Z,17.78
2022-08-08T07:29:05.288Z,17.91
2022-08-08T07:31:35.405Z,18.01
2022-08-08T07:34:08.971Z,18.15
2022-08-08T07:36:48.155Z,18.28
2022-08-08T07:39:22.620Z,18.37
2022-08-08T07:42:05.010Z,18.40
2022-08-08T07:44:37.187Z,18.51
2022-08-08T07:47:08.012Z,18.62
2022-08-08T07:49:34.830Z,18.77
2022-08-08T07:52:06.196Z,18.88
2022-08-08T07:54:44.968Z,19.00
2022-08-08T07:57:24.054Z,19.08
2022-08-08T08:00:15.991Z,19.17
2022-08-08T08:02:44.372Z,19.20
2022-08-08T08:05:33.005Z,19.22
2022-08-08T08:08:06.553Z,19.18
2022-08-08T08:10:35.955Z,19.18
2022-08-08T08:14:08.284Z,19.17
2022-08-08T08:16:40.983Z,19.19
2022-08-08T08:19:10.443Z,19.18
2022-08-08T08:21:58.156Z,19.15
2022-08-08T08:24:30.830Z,19.14
2022-08-08T08:27:03.490Z,19.16
2022-08-08T08:29:30.875Z,19.16
2022-08-08T08:31:59.144Z,19.16
2022-08-08T08:34:32.585Z,19.19
2022-08-08T08:37:07.802Z,19.23
2022-08-08T08:40:00.172Z,19.29
2022-08-08T08:42:29.302Z,19.35
2022-08-08T08:45:21.992Z,19.40
2022-08-08T08:47:54.931Z,19.44
2022-08-08T08:50:32.559Z,19.48
2022-08-08T08:53:04.486Z,19.54
2022-08-08T08:55:39.254Z,19.55
2022-08-08T08:58:08.792Z,19.53
2022-08-08T09:01:04.872Z,19.51
2022-08-08T09:03:46.127Z,19.58
2022-08-08T09:06:28.252Z,19.70
2022-08-08T09:09:35.578Z,19.83
2022-08-08T09:12:11.042Z,19.89
2022-08-08T09:14:42.565Z,19.94
2022-08-08T09:17:18.387Z,19.93
2022-08-08T09:22:01.961Z,19.93
2022-08-08T09:22:35.621Z,19.96
2022-08-08T09:25:04.473Z,20.02
2022-08-08T09:27:55.701Z,20.04
2022-08-08T09:30:20.084Z,20.09
2022-08-08T09:33:12.704Z,20.12
2022-08-08T09:35:49.006Z,20.20
2022-08-08T09:38:30.425Z,20.45
2022-08-08T09:41:05.158Z,20.73
2022-08-08T09:44:04.802Z,20.79
2022-08-08T09:46:25.767Z,20.80
2022-08-08T09:49:18.639Z,20.79
2022-08-08T09:52:01.975Z,20.85
2022-08-08T09:54:45.887Z,21.01
2022-08-08T09:57:19.309Z,21.08
2022-08-08T10:00:14.672Z,21.11
2022-08-08T10:02:45.084Z,21.16
2022-08-08T10:05:25.324Z,21.26
2022-08-08T10:07:52.397Z,21.21
2022-08-08T10:10:38.593Z,21.25
2022-08-08T10:13:26.103Z,21.39
2022-08-08T10:16:02.117Z,21.63
2022-08-08T10:18:33.609Z,21.64
2022-08-08T10:21:22.728Z,21.53
2022-08-08T10:23:57.964Z,21.52
2022-08-08T10:26:52.176Z,21.63
2022-08-08T10:32:16.318Z,21.73
2022-08-08T10:34:58.521Z,21.70
2022-08-08T10:37:34.628Z,21.83
2022-08-08T10:40:16.993Z,21.87
2022-08-08T10:42:45.230Z,21.74
2022-08-08T10:45:16.117Z,21.77
2022-08-08T10:47:48.253Z,21.81
2022-08-08T10:50:20.237Z,21.84
2022-08-08T10:52:50.508Z,21.94
2022-08-08T10:55:39.447Z,22.09
2022-08-08T10:58:08.304Z,22.16
2022-08-08T11:00:53.266Z,22.29
2022-08-08T11:03:37.002Z,22.48
2022-08-08T11:06:15.924Z,22.64
2022-08-08T11:08:50.167Z,22.79
2022-08-08T11:11:32.100Z,22.87
2022-08-08T11:14:16.322Z,22.97
2022-08-08T11:16:47.521Z,23.08
2022-08-08T11:19:17.287Z,23.16
2022-08-08T11:21:54.271Z,23.17
2022-08-08T11:24:27.117Z,23.16
2022-08-08T11:26:58.422Z,23.22
2022-08-08T11:29:41.376Z,23.35
2022-08-08T11:32:15.665Z,23.50
2022-08-08T11:35:09.594Z,23.51
2022-08-08T11:38:34.575Z,23.36
2022-08-08T11:40:22.658Z,23.35
2022-08-08T11:42:55.380Z,23.41
2022-08-08T11:45:23.207Z,23.52
2022-08-08T11:48:02.971Z,23.63
2022-08-08T11:50:33.638Z,23.84
2022-08-08T11:53:05.739Z,24.00
2022-08-08T11:55:36.651Z,24.17
2022-08-08T11:58:14.342Z,24.32
2022-08-08T12:00:53.359Z,24.41
2022-08-08T12:03:24.107Z,24.47
2022-08-08T12:05:54.358Z,24.38
2022-08-08T12:08:37.105Z,24.22
2022-08-08T12:11:10.094Z,24.26
2022-08-08T12:14:02.652Z,24.37
2022-08-08T12:16:31.819Z,24.53
2022-08-08T12:19:12.271Z,24.61
2022-08-08T12:21:58.740Z,24.52
2022-08-08T12:24:29.723Z,24.43
2022-08-08T12:26:57.114Z,24.46
2022-08-08T12:29:40.971Z,24.54
2022-08-08T12:32:17.017Z,24.64
2022-08-08T12:35:13.187Z,24.72
2022-08-08T12:37:47.856Z,24.65
2022-08-08T12:40:54.038Z,24.57
2022-08-08T12:43:43.428Z,24.64
2022-08-08T12:46:25.064Z,24.74
2022-08-08T12:49:25.343Z,24.77
2022-08-08T12:51:59.281Z,24.92
2022-08-08T12:54:33.236Z,25.13
2022-08-08T12:57:17.470Z,25.28
2022-08-08T13:00:05.199Z,25.29
2022-08-08T13:02:42.151Z,24.98
2022-08-08T13:05:26.856Z,24.67
2022-08-08T13:08:18.166Z,24.67
2022-08-08T13:10:58.442Z,24.78
2022-08-08T13:13:28.908Z,24.79
2022-08-08T13:16:25.469Z,24.63
2022-08-08T13:18:57.606Z,24.53
2022-08-08T13:21:53.389Z,24.38
2022-08-08T13:24:40.702Z,24.23
2022-08-08T13:27:14.800Z,24.26
2022-08-08T13:29:54.869Z,24.39
2022-08-08T13:32:23.833Z,24.39
2022-08-08T13:34:59.310Z,24.38
2022-08-08T13:37:51.687Z,24.38
2022-08-08T13:40:26.597Z,24.28
2022-08-08T13:42:55.675Z,24.34
2022-08-08T13:45:23.983Z,24.33
2022-08-08T13:48:01.907Z,24.23
2022-08-08T13:50:43.281Z,24.10
2022-08-08T13:53:31.672Z,24.01
2022-08-08T13:56:11.888Z,24.17
2022-08-08T13:58:57.776Z,24.38
2022-08-08T14:01:41.621Z,24.52
2022-08-08T14:04:22.999Z,24.59
2022-08-08T14:06:58.859Z,24.68
2022-08-08T14:10:05.920Z,24.83
2022-08-08T14:12:29.454Z,25.13
2022-08-08T14:14:56.665Z,25.27
2022-08-08T14:17:57.394Z,25.28
2022-08-08T14:20:15.532Z,25.25
2022-08-08T14:23:21.318Z,25.28
2022-08-08T14:26:04.002Z,25.32
2022-08-08T14:28:39.617Z,25.43
2022-08-08T14:31:11.509Z,25.67
2022-08-08T14:33:56.162Z,25.93
2022-08-08T14:36:37.533Z,26.21
2022-08-08T14:39:11.870Z,26.52
2022-08-08T14:41:54.024Z,26.74
2022-08-08T14:44:35.062Z,26.96
2022-08-08T14:47:02.238Z,27.08
2022-08-08T14:49:37.602Z,27.06
2022-08-08T14:52:27.812Z,26.62
2022-08-08T14:54:54.405Z,26.16
2022-08-08T14:58:00.982Z,25.96
2022-08-08T15:00:08.821Z,25.88
2022-08-08T15:02:36.093Z,25.87
2022-08-08T15:05:42.891Z,25.86
2022-08-08T15:08:22.216Z,25.64
2022-08-08T15:10:57.738Z,25.46
2022-08-08T15:13:39.970Z,25.57
2022-08-08T15:16:12.214Z,25.67
2022-08-08T15:18:44.262Z,25.64
2022-08-08T15:21:18.917Z,25.58
2022-08-08T15:23:51.046Z,25.55
2022-08-08T15:26:21.505Z,25.57
2022-08-08T15:28:54.236Z,25.53
2022-08-08T15:31:55.583Z,25.62
2022-08-08T15:34:28.971Z,25.70
2022-08-08T15:37:01.869Z,25.75
2022-08-08T15:39:31.683Z,25.74
2022-08-08T15:42:07.037Z,25.60
2022-08-08T15:44:40.539Z,25.36
2022-08-08T15:47:16.225Z,25.19
2022-08-08T15:49:47.639Z,25.12
2022-08-08T15:52:15.973Z,25.17
2022-08-08T15:54:46.221Z,25.44
2022-08-08T15:57:15.526Z,25.77
2022-08-08T16:00:06.178Z,26.08
2022-08-08T16:02:31.342Z,26.40
2022-08-08T16:04:59.443Z,26.62
2022-08-08T16:07:39.475Z,26.71
2022-08-08T16:13:15.121Z,26.61
2022-08-08T16:13:28.934Z,26.46
2022-08-08T16:15:59.062Z,26.29
2022-08-08T16:18:30.082Z,26.20
2022-08-08T16:20:59.947Z,26.09
2022-08-08T16:23:27.012Z,26.17
2022-08-08T16:25:57.106Z,26.25
2022-08-08T16:28:35.266Z,26.28
2022-08-08T16:31:06.310Z,26.39
2022-08-08T16:33:37.962Z,26.33
2022-08-08T16:36:05.851Z,26.35
2022-08-08T16:38:36.709Z,26.52
2022-08-08T16:41:20.126Z,26.75
2022-08-08T16:43:49.042Z,27.08
2022-08-08T16:46:36.336Z,27.19
2022-08-08T16:49:07.777Z,27.32
2022-08-08T16:55:02.363Z,27.38
2022-08-08T16:55:02.585Z,27.11
2022-08-08T16:57:23.589Z,27.08
2022-08-08T16:59:58.114Z,27.08
2022-08-08T17:02:38.290Z,27.20
2022-08-08T17:05:10.210Z,27.15
2022-08-08T17:07:40.894Z,26.87
2022-08-08T17:10:09.738Z,26.41
2022-08-08T17:12:37.315Z,25.92
2022-08-08T17:15:20.248Z,25.47
2022-08-08T17:18:02.420Z,25.21
2022-08-08T17:20:38.143Z,25.03
2022-08-08T17:23:17.750Z,24.86
2022-08-08T17:25:54.932Z,24.68
2022-08-08T17:28:34.134Z,24.55
2022-08-08T17:31:45.721Z,24.39
2022-08-08T17:34:48.156Z,24.24
2022-08-08T17:37:00.208Z,24.15
2022-08-08T17:40:04.407Z,24.12
2022-08-08T17:42:18.367Z,24.11
2022-08-08T17:44:46.470Z,24.05
2022-08-08T17:47:23.774Z,23.99
2022-08-08T17:50:05.057Z,23.97
2022-08-08T17:52:33.430Z,23.94
2022-08-08T17:55:01.394Z,23.94
2022-08-08T17:57:35.523Z,24.01
2022-08-08T18:00:04.988Z,24.20
2022-08-08T18:02:40.206Z,24.48
2022-08-08T18:05:22.237Z,24.75
2022-08-08T18:08:03.211Z,24.97
2022-08-08T18:10:31.223Z,25.18
2022-08-08T18:12:58.541Z,25.33
2022-08-08T18:15:25.265Z,25.43
2022-08-08T18:18:27.238Z,25.51
2022-08-08T18:20:54.427Z,25.55
2022-08-08T18:23:21.774Z,25.53
2022-08-08T18:25:50.083Z,25.46
2022-08-08T18:28:23.322Z,25.32
2022-08-08T18:30:50.933Z,25.14
2022-08-08T18:33:20.291Z,25.01
2022-08-08T18:36:04.837Z,24.83
2022-08-08T18:38:32.207Z,24.70
2022-08-08T18:41:01.112Z,24.57
2022-08-08T18:43:38.015Z,24.33
2022-08-08T18:46:56.224Z,24.08
2022-08-08T18:48:56.502Z,23.81
2022-08-08T18:51:48.412Z,23.59
2022-08-08T18:54:22.763Z,23.38
2022-08-08T18:56:57.086Z,23.18
2022-08-08T18:59:23.719Z,23.02
2022-08-08T19:02:26.887Z,22.87
2022-08-08T19:04:37.781Z,22.68
2022-08-08T19:07:04.421Z,22.55
2022-08-08T19:09:48.486Z,22.48
2022-08-08T19:12:16.801Z,22.40
2022-08-08T19:14:43.559Z,22.33
2022-08-08T19:17:10.984Z,22.27
2022-08-08T19:19:44.226Z,22.18
2022-08-08T19:22:26.113Z,22.05
2022-08-08T19:25:01.395Z,21.96
2022-08-08T19:27:55.837Z,21.89
2022-08-08T19:30:24.326Z,21.86
2022-08-08T19:32:53.047Z,21.76
2022-08-08T19:35:25.467Z,21.65
2022-08-08T19:37:57.339Z,21.52
2022-08-08T19:40:30.899Z,21.37
2022-08-08T19:42:58.274Z,21.28
2022-08-08T19:45:57.351Z,21.24
2022-08-08T19:48:30.833Z,21.19
2022-08-08T19:50:59.492Z,21.13
2022-08-08T19:53:54.058Z,21.07
2022-08-08T19:56:16.313Z,21.00
2022-08-08T19:58:52.819Z,20.92
2022-08-08T20:01:26.249Z,20.86
2022-08-08T20:04:08.285Z,20.76
2022-08-08T20:06:34.959Z,20.67
2022-08-08T20:09:04.422Z,20.56
2022-08-08T20:11:37.427Z,20.48
2022-08-08T20:14:33.126Z,20.40
2022-08-08T20:16:56.700Z,20.28
2022-08-08T20:19:34.638Z,20.20
2022-08-08T20:22:20.962Z,20.10
2022-08-08T20:24:55.519Z,19.99
2022-08-08T20:27:22.094Z,19.90
2022-08-08T20:30:00.440Z,19.80
2022-08-08T20:32:28.369Z,19.70
2022-08-08T20:35:00.717Z,19.61
2022-08-08T20:37:46.902Z,19.51
2022-08-08T20:40:16.801Z,19.44
2022-08-08T20:42:54.955Z,19.35
2022-08-08T20:45:54.355Z,19.31
2022-08-08T20:48:09.544Z,19.37
2022-08-08T20:50:36.352Z,19.42
2022-08-08T20:53:04.101Z,19.44
2022-08-08T20:55:42.404Z,19.45
2022-08-08T20:58:14.079Z,19.45
2022-08-08T21:00:49.668Z,19.40
2022-08-08T21:03:17.021Z,19.37
2022-08-08T21:05:58.733Z,19.31
2022-08-08T21:08:36.834Z,19.25
2022-08-08T21:11:13.492Z,19.17
2022-08-08T21:13:42.829Z,19.08
2022-08-08T21:16:20.375Z,18.99
2022-08-08T21:18:57.207Z,18.90
2022-08-08T21:21:39.444Z,18.81
2022-08-08T21:24:19.211Z,18.77
2022-08-08T21:26:54.049Z,18.72
2022-08-08T21:29:21.560Z,18.71
2022-08-08T21:31:58.747Z,18.74
2022-08-08T21:34:29.936Z,18.73
2022-08-08T21:36:58.388Z,18.71
2022-08-08T21:39:41.548Z,18.68
2022-08-08T21:42:12.620Z,18.64
2022-08-08T21:44:58.948Z,18.62
2022-08-08T21:48:04.937Z,18.66
2022-08-08T21:50:12.611Z,18.67
2022-08-08T21:54:22.848Z,18.63
2022-08-08T21:56:26.597Z,18.58
2022-08-08T21:58:13.746Z,18.41
2022-08-08T22:00:43.034Z,18.28
2022-08-08T22:03:11.182Z,18.15
2022-08-08T22:05:44.855Z,18.02
2022-08-08T22:08:15.313Z,17.92
2022-08-08T22:10:41.977Z,17.86
2022-08-08T22:13:18.534Z,17.84
2022-08-08T22:15:58.584Z,17.91
2022-08-08T22:18:28.998Z,17.97
2022-08-08T22:21:01.362Z,18.02
2022-08-08T22:23:49.565Z,17.98
2022-08-08T22:26:29.816Z,17.99
2022-08-08T22:29:12.882Z,17.93
2022-08-08T22:31:58.223Z,17.84
2022-08-08T22:34:31.261Z,17.73
2022-08-08T22:36:57.897Z,17.68
2022-08-08T22:39:39.185Z,17.64
2022-08-08T22:42:13.204Z,17.64
2022-08-08T22:44:39.902Z,17.62
2022-08-08T22:47:15.889Z,17.59
2022-08-08T22:49:44.943Z,17.54
2022-08-08T22:52:25.758Z,17.46
2022-08-08T22:54:53.890Z,17.43
2022-08-08T22:57:25.425Z,17.39
2022-08-08T22:59:58.932Z,17.38
2022-08-08T23:02:28.914Z,17.38
2022-08-08T23:05:02.111Z,17.37
2022-08-08T23:07:51.673Z,17.43
2022-08-08T23:10:25.444Z,17.52
2022-08-08T23:12:54.073Z,17.57
2022-08-08T23:16:41.876Z,17.59
2022-08-08T23:18:12.025Z,17.60
2022-08-08T23:20:43.884Z,17.53
2022-08-08T23:23:12.662Z,17.48
2022-08-08T23:25:48.492Z,17.41
2022-08-08T23:28:17.742Z,17.38
2022-08-08T23:30:49.477Z,17.37
2022-08-08T23:33:20.971Z,17.37
2022-08-08T23:36:08.061Z,17.30
2022-08-08T23:38:41.823Z,17.20
2022-08-08T23:41:23.107Z,17.09
2022-08-08T23:43:54.358Z,17.01
2022-08-08T23:49:05.324Z,16.96
2022-08-08T23:49:15.230Z,16.93
2022-08-08T23:52:04.709Z,16.93
2022-08-08T23:54:42.874Z,16.89
2022-08-08T23:57:26.718Z,16.89
